sensor_id;sensor_type;location;lat;lon;timestamp;P1;durP1;ratioP1;P2;durP2;ratioP2
1591;SDS011;789;51.612;7.510;2022-12-07T00:01:14;27.70;;;22.20;;
1591;SDS011;789;51.612;7.510;2022-12-07T00:03:43;26.35;;;21.63;;
1591;SDS011;789;51.612;7.510;2022-12-07T00:06:12;27.93;;;22.90;;
1591;SDS011;789;51.612;7.510;2022-12-07T00:08:40;24.05;;;21.45;;
1591;SDS011;789;51.612;7.510;2022-12-07T00:11:08;27.80;;;22.50;;
1591;SDS011;789;51.612;7.510;2022-12-07T00:13:36;24.95;;;20.33;;
1591;SDS011;789;51.612;7.510;2022-12-07T00:16:06;25.73;;;21.05;;
1591;SDS011;789;51.612;7.510;2022-12-07T00:18:34;24.90;;;20.27;;
1591;SDS011;789;51.612;7.510;2022-12-07T00:21:01;24.65;;;20.80;;
1591;SDS011;789;51.612;7.510;2022-12-07T00:23:29;24.77;;;19.50;;
1591;SDS011;789;51.612;7.510;2022-12-07T00:26:02;27.08;;;21.13;;
1591;SDS011;789;51.612;7.510;2022-12-07T00:28:29;23.35;;;19.05;;
1591;SDS011;789;51.612;7.510;2022-12-07T00:30:59;20.08;;;17.55;;
1591;SDS011;789;51.612;7.510;2022-12-07T00:33:28;22.73;;;19.17;;
1591;SDS011;789;51.612;7.510;2022-12-07T00:35:55;23.23;;;19.20;;
1591;SDS011;789;51.612;7.510;2022-12-07T00:38:22;21.50;;;19.20;;
1591;SDS011;789;51.612;7.510;2022-12-07T00:40:53;23.55;;;19.23;;
1591;SDS011;789;51.612;7.510;2022-12-07T00:43:21;22.13;;;19.73;;
1591;SDS011;789;51.612;7.510;2022-12-07T00:45:48;23.13;;;20.00;;
1591;SDS011;789;51.612;7.510;2022-12-07T00:48:14;31.77;;;21.23;;
1591;SDS011;789;51.612;7.510;2022-12-07T00:50:43;24.40;;;21.30;;
1591;SDS011;789;51.612;7.510;2022-12-07T00:53:10;26.75;;;21.15;;
1591;SDS011;789;51.612;7.510;2022-12-07T00:55:36;26.55;;;22.15;;
1591;SDS011;789;51.612;7.510;2022-12-07T00:58:03;25.00;;;20.48;;
1591;SDS011;789;51.612;7.510;2022-12-07T01:00:30;23.87;;;20.87;;
1591;SDS011;789;51.612;7.510;2022-12-07T01:02:58;31.08;;;21.08;;
1591;SDS011;789;51.612;7.510;2022-12-07T01:05:25;26.10;;;21.80;;
1591;SDS011;789;51.612;7.510;2022-12-07T01:07:53;27.52;;;21.88;;
1591;SDS011;789;51.612;7.510;2022-12-07T01:10:20;25.25;;;21.25;;
1591;SDS011;789;51.612;7.510;2022-12-07T01:12:46;23.83;;;20.90;;
1591;SDS011;789;51.612;7.510;2022-12-07T01:15:13;26.13;;;20.67;;
1591;SDS011;789;51.612;7.510;2022-12-07T01:17:40;24.75;;;20.75;;
1591;SDS011;789;51.612;7.510;2022-12-07T01:20:07;26.67;;;21.30;;
1591;SDS011;789;51.612;7.510;2022-12-07T01:22:38;30.63;;;20.95;;
1591;SDS011;789;51.612;7.510;2022-12-07T01:25:07;26.48;;;21.30;;
1591;SDS011;789;51.612;7.510;2022-12-07T01:27:35;27.85;;;22.48;;
1591;SDS011;789;51.612;7.510;2022-12-07T01:30:03;27.42;;;22.98;;
1591;SDS011;789;51.612;7.510;2022-12-07T01:32:31;29.30;;;23.30;;
1591;SDS011;789;51.612;7.510;2022-12-07T01:34:58;28.83;;;23.63;;
1591;SDS011;789;51.612;7.510;2022-12-07T01:37:25;30.30;;;23.85;;
1591;SDS011;789;51.612;7.510;2022-12-07T01:39:52;25.58;;;22.42;;
1591;SDS011;789;51.612;7.510;2022-12-07T01:42:20;32.90;;;24.25;;
1591;SDS011;789;51.612;7.510;2022-12-07T01:47:51;30.80;;;24.13;;
1591;SDS011;789;51.612;7.510;2022-12-07T01:50:21;32.88;;;24.42;;
1591;SDS011;789;51.612;7.510;2022-12-07T01:52:52;29.40;;;23.55;;
1591;SDS011;789;51.612;7.510;2022-12-07T01:55:21;27.88;;;22.50;;
1591;SDS011;789;51.612;7.510;2022-12-07T01:57:52;30.25;;;23.00;;
1591;SDS011;789;51.612;7.510;2022-12-07T02:00:20;29.65;;;24.52;;
1591;SDS011;789;51.612;7.510;2022-12-07T02:02:47;30.05;;;23.48;;
1591;SDS011;789;51.612;7.510;2022-12-07T02:05:17;28.70;;;21.25;;
1591;SDS011;789;51.612;7.510;2022-12-07T02:07:46;29.27;;;22.45;;
1591;SDS011;789;51.612;7.510;2022-12-07T02:10:14;27.73;;;22.40;;
1591;SDS011;789;51.612;7.510;2022-12-07T02:12:42;28.90;;;22.52;;
1591;SDS011;789;51.612;7.510;2022-12-07T02:15:11;26.52;;;22.90;;
1591;SDS011;789;51.612;7.510;2022-12-07T02:17:40;29.67;;;23.17;;
1591;SDS011;789;51.612;7.510;2022-12-07T02:20:21;26.45;;;21.65;;
1591;SDS011;789;51.612;7.510;2022-12-07T02:25:55;32.90;;;24.90;;
1591;SDS011;789;51.612;7.510;2022-12-07T02:28:35;29.52;;;23.88;;
1591;SDS011;789;51.612;7.510;2022-12-07T02:31:06;29.42;;;23.92;;
1591;SDS011;789;51.612;7.510;2022-12-07T02:33:39;28.15;;;23.85;;
1591;SDS011;789;51.612;7.510;2022-12-07T02:36:10;29.52;;;24.08;;
1591;SDS011;789;51.612;7.510;2022-12-07T02:38:43;30.58;;;22.50;;
1591;SDS011;789;51.612;7.510;2022-12-07T02:41:16;29.80;;;24.08;;
1591;SDS011;789;51.612;7.510;2022-12-07T02:43:49;31.00;;;23.50;;
1591;SDS011;789;51.612;7.510;2022-12-07T02:46:22;31.85;;;23.95;;
1591;SDS011;789;51.612;7.510;2022-12-07T02:48:51;28.98;;;23.25;;
1591;SDS011;789;51.612;7.510;2022-12-07T02:51:20;31.48;;;23.50;;
1591;SDS011;789;51.612;7.510;2022-12-07T02:53:48;29.30;;;24.38;;
1591;SDS011;789;51.612;7.510;2022-12-07T02:56:18;27.08;;;22.13;;
1591;SDS011;789;51.612;7.510;2022-12-07T02:58:54;25.87;;;22.90;;
1591;SDS011;789;51.612;7.510;2022-12-07T03:01:37;27.27;;;22.92;;
1591;SDS011;789;51.612;7.510;2022-12-07T03:04:14;29.05;;;22.90;;
1591;SDS011;789;51.612;7.510;2022-12-07T03:06:53;36.30;;;25.65;;
1591;SDS011;789;51.612;7.510;2022-12-07T03:09:32;31.02;;;24.63;;
1591;SDS011;789;51.612;7.510;2022-12-07T03:12:06;29.30;;;23.27;;
1591;SDS011;789;51.612;7.510;2022-12-07T03:14:40;28.73;;;22.52;;
1591;SDS011;789;51.612;7.510;2022-12-07T03:17:14;31.25;;;22.73;;
1591;SDS011;789;51.612;7.510;2022-12-07T03:19:44;30.13;;;22.13;;
1591;SDS011;789;51.612;7.510;2022-12-07T03:22:13;26.90;;;22.73;;
1591;SDS011;789;51.612;7.510;2022-12-07T03:24:41;28.15;;;22.20;;
1591;SDS011;789;51.612;7.510;2022-12-07T03:27:12;28.97;;;22.50;;
1591;SDS011;789;51.612;7.510;2022-12-07T03:29:43;29.08;;;22.92;;
1591;SDS011;789;51.612;7.510;2022-12-07T03:32:14;26.65;;;21.60;;
1591;SDS011;789;51.612;7.510;2022-12-07T03:34:49;30.23;;;23.17;;
1591;SDS011;789;51.612;7.510;2022-12-07T03:37:23;35.90;;;23.20;;
1591;SDS011;789;51.612;7.510;2022-12-07T03:40:01;26.35;;;21.80;;
1591;SDS011;789;51.612;7.510;2022-12-07T03:42:32;27.27;;;21.50;;
1591;SDS011;789;51.612;7.510;2022-12-07T03:44:59;35.47;;;23.50;;
1591;SDS011;789;51.612;7.510;2022-12-07T03:47:30;32.30;;;23.13;;
1591;SDS011;789;51.612;7.510;2022-12-07T03:50:02;32.30;;;23.55;;
1591;SDS011;789;51.612;7.510;2022-12-07T03:52:34;30.67;;;23.92;;
1591;SDS011;789;51.612;7.510;2022-12-07T03:55:06;31.88;;;23.60;;
1591;SDS011;789;51.612;7.510;2022-12-07T03:57:36;30.30;;;22.60;;
1591;SDS011;789;51.612;7.510;2022-12-07T04:00:06;30.40;;;22.85;;
1591;SDS011;789;51.612;7.510;2022-12-07T04:02:35;35.78;;;22.55;;
1591;SDS011;789;51.612;7.510;2022-12-07T04:05:02;33.35;;;22.05;;
1591;SDS011;789;51.612;7.510;2022-12-07T04:07:30;34.28;;;23.65;;
1591;SDS011;789;51.612;7.510;2022-12-07T04:09:56;36.88;;;23.83;;
1591;SDS011;789;51.612;7.510;2022-12-07T04:12:23;33.00;;;23.25;;
1591;SDS011;789;51.612;7.510;2022-12-07T04:14:50;31.35;;;22.50;;
1591;SDS011;789;51.612;7.510;2022-12-07T04:17:16;29.02;;;22.92;;
1591;SDS011;789;51.612;7.510;2022-12-07T04:19:45;29.50;;;23.08;;
1591;SDS011;789;51.612;7.510;2022-12-07T04:22:11;29.92;;;22.40;;
1591;SDS011;789;51.612;7.510;2022-12-07T04:24:38;30.13;;;23.33;;
1591;SDS011;789;51.612;7.510;2022-12-07T04:27:05;33.20;;;23.10;;
1591;SDS011;789;51.612;7.510;2022-12-07T04:29:31;31.20;;;21.67;;
1591;SDS011;789;51.612;7.510;2022-12-07T04:31:58;28.52;;;21.98;;
1591;SDS011;789;51.612;7.510;2022-12-07T04:34:25;33.30;;;21.95;;
1591;SDS011;789;51.612;7.510;2022-12-07T04:36:53;30.40;;;22.85;;
1591;SDS011;789;51.612;7.510;2022-12-07T04:39:20;28.95;;;21.60;;
1591;SDS011;789;51.612;7.510;2022-12-07T04:41:49;31.42;;;21.67;;
1591;SDS011;789;51.612;7.510;2022-12-07T04:44:16;28.77;;;21.50;;
1591;SDS011;789;51.612;7.510;2022-12-07T04:46:43;30.60;;;23.20;;
1591;SDS011;789;51.612;7.510;2022-12-07T04:49:11;33.72;;;24.00;;
1591;SDS011;789;51.612;7.510;2022-12-07T04:51:38;30.77;;;22.50;;
1591;SDS011;789;51.612;7.510;2022-12-07T04:54:07;32.70;;;22.45;;
1591;SDS011;789;51.612;7.510;2022-12-07T04:56:34;34.20;;;21.65;;
1591;SDS011;789;51.612;7.510;2022-12-07T04:59:02;29.25;;;21.42;;
1591;SDS011;789;51.612;7.510;2022-12-07T05:01:29;25.65;;;21.17;;
1591;SDS011;789;51.612;7.510;2022-12-07T05:03:56;29.67;;;22.52;;
1591;SDS011;789;51.612;7.510;2022-12-07T05:06:22;32.33;;;21.55;;
1591;SDS011;789;51.612;7.510;2022-12-07T05:08:49;26.15;;;20.85;;
1591;SDS011;789;51.612;7.510;2022-12-07T05:11:18;29.45;;;21.88;;
1591;SDS011;789;51.612;7.510;2022-12-07T05:13:58;30.63;;;20.40;;
1591;SDS011;789;51.612;7.510;2022-12-07T05:16:25;27.85;;;20.60;;
1591;SDS011;789;51.612;7.510;2022-12-07T05:18:52;32.90;;;20.73;;
1591;SDS011;789;51.612;7.510;2022-12-07T05:21:19;27.83;;;20.20;;
1591;SDS011;789;51.612;7.510;2022-12-07T05:23:45;31.70;;;21.08;;
1591;SDS011;789;51.612;7.510;2022-12-07T05:26:12;27.15;;;21.35;;
1591;SDS011;789;51.612;7.510;2022-12-07T05:28:40;28.25;;;20.33;;
1591;SDS011;789;51.612;7.510;2022-12-07T05:31:07;29.08;;;20.48;;
1591;SDS011;789;51.612;7.510;2022-12-07T05:33:34;26.48;;;19.73;;
1591;SDS011;789;51.612;7.510;2022-12-07T05:36:00;24.42;;;19.77;;
1591;SDS011;789;51.612;7.510;2022-12-07T05:38:30;30.30;;;19.98;;
1591;SDS011;789;51.612;7.510;2022-12-07T05:40:59;26.92;;;19.17;;
1591;SDS011;789;51.612;7.510;2022-12-07T05:43:27;32.83;;;20.77;;
1591;SDS011;789;51.612;7.510;2022-12-07T05:45:55;27.67;;;19.55;;
1591;SDS011;789;51.612;7.510;2022-12-07T05:48:22;31.17;;;21.08;;
1591;SDS011;789;51.612;7.510;2022-12-07T05:50:49;26.27;;;20.65;;
1591;SDS011;789;51.612;7.510;2022-12-07T05:53:17;27.13;;;20.58;;
1591;SDS011;789;51.612;7.510;2022-12-07T05:55:44;29.33;;;20.27;;
1591;SDS011;789;51.612;7.510;2022-12-07T05:58:11;29.55;;;20.77;;
1591;SDS011;789;51.612;7.510;2022-12-07T06:00:56;27.48;;;20.77;;
1591;SDS011;789;51.612;7.510;2022-12-07T06:03:23;28.63;;;19.48;;
1591;SDS011;789;51.612;7.510;2022-12-07T06:05:51;27.65;;;19.25;;
1591;SDS011;789;51.612;7.510;2022-12-07T06:08:18;25.25;;;19.73;;
1591;SDS011;789;51.612;7.510;2022-12-07T06:10:46;31.33;;;20.70;;
1591;SDS011;789;51.612;7.510;2022-12-07T06:13:33;26.80;;;19.20;;
1591;SDS011;789;51.612;7.510;2022-12-07T06:16:00;31.17;;;18.87;;
1591;SDS011;789;51.612;7.510;2022-12-07T06:18:27;29.67;;;19.77;;
1591;SDS011;789;51.612;7.510;2022-12-07T06:20:53;27.25;;;18.95;;
1591;SDS011;789;51.612;7.510;2022-12-07T06:23:20;26.75;;;18.05;;
1591;SDS011;789;51.612;7.510;2022-12-07T06:25:47;30.80;;;18.65;;
1591;SDS011;789;51.612;7.510;2022-12-07T06:28:13;30.25;;;18.50;;
1591;SDS011;789;51.612;7.510;2022-12-07T06:30:40;25.58;;;17.08;;
1591;SDS011;789;51.612;7.510;2022-12-07T06:33:08;29.20;;;18.05;;
1591;SDS011;789;51.612;7.510;2022-12-07T06:35:35;23.55;;;17.10;;
1591;SDS011;789;51.612;7.510;2022-12-07T06:38:02;26.52;;;18.65;;
1591;SDS011;789;51.612;7.510;2022-12-07T06:40:28;30.15;;;18.67;;
1591;SDS011;789;51.612;7.510;2022-12-07T06:42:55;28.90;;;18.92;;
1591;SDS011;789;51.612;7.510;2022-12-07T06:45:22;23.90;;;17.55;;
1591;SDS011;789;51.612;7.510;2022-12-07T06:47:48;24.90;;;18.75;;
1591;SDS011;789;51.612;7.510;2022-12-07T06:50:18;24.90;;;18.33;;
1591;SDS011;789;51.612;7.510;2022-12-07T06:52:45;23.10;;;18.17;;
1591;SDS011;789;51.612;7.510;2022-12-07T06:55:11;26.88;;;19.58;;
1591;SDS011;789;51.612;7.510;2022-12-07T06:57:38;24.40;;;19.48;;
1591;SDS011;789;51.612;7.510;2022-12-07T07:00:05;26.23;;;17.75;;
1591;SDS011;789;51.612;7.510;2022-12-07T07:02:33;24.35;;;17.20;;
1591;SDS011;789;51.612;7.510;2022-12-07T07:04:59;24.92;;;17.67;;
1591;SDS011;789;51.612;7.510;2022-12-07T07:07:27;30.20;;;19.88;;
1591;SDS011;789;51.612;7.510;2022-12-07T07:09:54;31.17;;;19.13;;
1591;SDS011;789;51.612;7.510;2022-12-07T07:12:21;21.08;;;17.45;;
1591;SDS011;789;51.612;7.510;2022-12-07T07:14:48;26.38;;;18.50;;
1591;SDS011;789;51.612;7.510;2022-12-07T07:17:14;23.33;;;17.10;;
1591;SDS011;789;51.612;7.510;2022-12-07T07:19:41;24.92;;;17.40;;
1591;SDS011;789;51.612;7.510;2022-12-07T07:22:10;24.08;;;17.30;;
1591;SDS011;789;51.612;7.510;2022-12-07T07:24:38;21.10;;;16.67;;
1591;SDS011;789;51.612;7.510;2022-12-07T07:27:05;24.73;;;17.05;;
1591;SDS011;789;51.612;7.510;2022-12-07T07:29:32;21.80;;;17.25;;
1591;SDS011;789;51.612;7.510;2022-12-07T07:31:59;28.35;;;18.10;;
1591;SDS011;789;51.612;7.510;2022-12-07T07:34:26;22.83;;;16.55;;
1591;SDS011;789;51.612;7.510;2022-12-07T07:36:53;24.75;;;17.35;;
1591;SDS011;789;51.612;7.510;2022-12-07T07:39:23;21.85;;;16.17;;
1591;SDS011;789;51.612;7.510;2022-12-07T07:41:50;23.95;;;16.73;;
1591;SDS011;789;51.612;7.510;2022-12-07T07:44:17;20.98;;;16.65;;
1591;SDS011;789;51.612;7.510;2022-12-07T07:46:44;28.88;;;16.45;;
1591;SDS011;789;51.612;7.510;2022-12-07T07:49:11;24.60;;;17.10;;
1591;SDS011;789;51.612;7.510;2022-12-07T07:51:37;30.05;;;16.27;;
1591;SDS011;789;51.612;7.510;2022-12-07T07:54:05;19.58;;;16.25;;
1591;SDS011;789;51.612;7.510;2022-12-07T07:56:32;26.42;;;17.15;;
1591;SDS011;789;51.612;7.510;2022-12-07T07:59:00;24.55;;;18.20;;
1591;SDS011;789;51.612;7.510;2022-12-07T08:01:27;25.50;;;15.98;;
1591;SDS011;789;51.612;7.510;2022-12-07T08:03:56;22.92;;;16.80;;
1591;SDS011;789;51.612;7.510;2022-12-07T08:06:23;24.15;;;16.55;;
1591;SDS011;789;51.612;7.510;2022-12-07T08:08:49;20.75;;;16.05;;
1591;SDS011;789;51.612;7.510;2022-12-07T08:11:16;27.45;;;16.75;;
1591;SDS011;789;51.612;7.510;2022-12-07T08:13:44;23.88;;;15.73;;
1591;SDS011;789;51.612;7.510;2022-12-07T08:16:13;20.48;;;15.20;;
1591;SDS011;789;51.612;7.510;2022-12-07T08:18:41;21.00;;;16.00;;
1591;SDS011;789;51.612;7.510;2022-12-07T08:21:09;26.60;;;16.52;;
1591;SDS011;789;51.612;7.510;2022-12-07T08:23:38;21.40;;;15.18;;
1591;SDS011;789;51.612;7.510;2022-12-07T08:26:05;20.50;;;15.20;;
1591;SDS011;789;51.612;7.510;2022-12-07T08:28:33;18.45;;;14.85;;
1591;SDS011;789;51.612;7.510;2022-12-07T08:31:00;21.23;;;14.73;;
1591;SDS011;789;51.612;7.510;2022-12-07T08:33:28;16.92;;;13.43;;
1591;SDS011;789;51.612;7.510;2022-12-07T08:35:59;16.60;;;12.17;;
1591;SDS011;789;51.612;7.510;2022-12-07T08:38:29;14.27;;;11.55;;
1591;SDS011;789;51.612;7.510;2022-12-07T08:40:56;14.90;;;10.95;;
1591;SDS011;789;51.612;7.510;2022-12-07T08:43:24;14.40;;;12.15;;
1591;SDS011;789;51.612;7.510;2022-12-07T08:45:53;17.63;;;12.30;;
1591;SDS011;789;51.612;7.510;2022-12-07T08:48:26;19.75;;;12.43;;
1591;SDS011;789;51.612;7.510;2022-12-07T08:51:07;13.45;;;11.95;;
1591;SDS011;789;51.612;7.510;2022-12-07T08:53:34;20.88;;;12.15;;
1591;SDS011;789;51.612;7.510;2022-12-07T08:56:02;15.52;;;11.77;;
1591;SDS011;789;51.612;7.510;2022-12-07T08:58:29;17.33;;;11.30;;
1591;SDS011;789;51.612;7.510;2022-12-07T09:00:56;14.73;;;12.10;;
1591;SDS011;789;51.612;7.510;2022-12-07T09:03:23;18.05;;;12.18;;
1591;SDS011;789;51.612;7.510;2022-12-07T09:05:51;15.32;;;11.93;;
1591;SDS011;789;51.612;7.510;2022-12-07T09:08:18;14.60;;;10.95;;
1591;SDS011;789;51.612;7.510;2022-12-07T09:10:46;13.35;;;10.90;;
1591;SDS011;789;51.612;7.510;2022-12-07T09:13:13;11.73;;;10.30;;
1591;SDS011;789;51.612;7.510;2022-12-07T09:15:40;16.80;;;10.95;;
1591;SDS011;789;51.612;7.510;2022-12-07T09:18:09;16.58;;;11.48;;
1591;SDS011;789;51.612;7.510;2022-12-07T09:20:39;18.97;;;11.10;;
1591;SDS011;789;51.612;7.510;2022-12-07T09:23:09;15.48;;;10.65;;
1591;SDS011;789;51.612;7.510;2022-12-07T09:25:36;15.13;;;11.37;;
1591;SDS011;789;51.612;7.510;2022-12-07T09:28:03;11.35;;;10.00;;
1591;SDS011;789;51.612;7.510;2022-12-07T09:30:30;14.70;;;10.00;;
1591;SDS011;789;51.612;7.510;2022-12-07T09:32:57;12.73;;;10.40;;
1591;SDS011;789;51.612;7.510;2022-12-07T09:35:24;19.70;;;9.17;;
1591;SDS011;789;51.612;7.510;2022-12-07T09:37:51;12.43;;;8.53;;
1591;SDS011;789;51.612;7.510;2022-12-07T09:40:23;11.43;;;8.83;;
1591;SDS011;789;51.612;7.510;2022-12-07T09:42:51;14.83;;;8.13;;
1591;SDS011;789;51.612;7.510;2022-12-07T09:45:21;9.20;;;7.40;;
1591;SDS011;789;51.612;7.510;2022-12-07T09:47:52;12.30;;;7.90;;
1591;SDS011;789;51.612;7.510;2022-12-07T09:50:20;11.90;;;8.03;;
1591;SDS011;789;51.612;7.510;2022-12-07T09:52:50;13.40;;;8.20;;
1591;SDS011;789;51.612;7.510;2022-12-07T09:55:19;11.90;;;7.87;;
1591;SDS011;789;51.612;7.510;2022-12-07T09:57:53;13.83;;;7.60;;
1591;SDS011;789;51.612;7.510;2022-12-07T10:00:21;8.50;;;7.63;;
1591;SDS011;789;51.612;7.510;2022-12-07T10:02:51;12.00;;;7.90;;
1591;SDS011;789;51.612;7.510;2022-12-07T10:05:23;13.73;;;7.80;;
1591;SDS011;789;51.612;7.510;2022-12-07T10:07:53;12.73;;;7.93;;
1591;SDS011;789;51.612;7.510;2022-12-07T10:10:23;9.10;;;7.60;;
1591;SDS011;789;51.612;7.510;2022-12-07T10:12:53;10.97;;;7.23;;
1591;SDS011;789;51.612;7.510;2022-12-07T10:15:22;9.23;;;6.63;;
1591;SDS011;789;51.612;7.510;2022-12-07T10:17:49;12.83;;;7.33;;
1591;SDS011;789;51.612;7.510;2022-12-07T10:20:19;9.53;;;6.63;;
1591;SDS011;789;51.612;7.510;2022-12-07T10:22:55;10.13;;;7.03;;
1591;SDS011;789;51.612;7.510;2022-12-07T10:25:29;11.50;;;6.00;;
1591;SDS011;789;51.612;7.510;2022-12-07T10:28:09;10.27;;;5.67;;
1591;SDS011;789;51.612;7.510;2022-12-07T10:30:46;8.13;;;5.20;;
1591;SDS011;789;51.612;7.510;2022-12-07T10:33:21;8.40;;;5.27;;
1591;SDS011;789;51.612;7.510;2022-12-07T10:35:55;7.37;;;4.60;;
1591;SDS011;789;51.612;7.510;2022-12-07T10:38:21;6.27;;;4.70;;
1591;SDS011;789;51.612;7.510;2022-12-07T10:41:00;6.03;;;4.03;;
1591;SDS011;789;51.612;7.510;2022-12-07T10:43:30;7.40;;;4.37;;
1591;SDS011;789;51.612;7.510;2022-12-07T10:46:07;6.80;;;4.00;;
1591;SDS011;789;51.612;7.510;2022-12-07T10:48:47;7.83;;;4.50;;
1591;SDS011;789;51.612;7.510;2022-12-07T10:51:25;6.57;;;4.07;;
1591;SDS011;789;51.612;7.510;2022-12-07T10:53:59;8.60;;;4.17;;
1591;SDS011;789;51.612;7.510;2022-12-07T10:59:36;6.63;;;3.90;;
1591;SDS011;789;51.612;7.510;2022-12-07T11:02:24;7.60;;;4.60;;
1591;SDS011;789;51.612;7.510;2022-12-07T11:05:02;8.80;;;4.40;;
1591;SDS011;789;51.612;7.510;2022-12-07T11:07:39;10.50;;;4.43;;
1591;SDS011;789;51.612;7.510;2022-12-07T11:10:15;7.00;;;4.20;;
1591;SDS011;789;51.612;7.510;2022-12-07T11:15:41;8.70;;;3.93;;
1591;SDS011;789;51.612;7.510;2022-12-07T11:18:20;11.00;;;4.90;;
1591;SDS011;789;51.612;7.510;2022-12-07T11:20:52;5.97;;;4.50;;
1591;SDS011;789;51.612;7.510;2022-12-07T11:23:26;6.17;;;4.27;;
1591;SDS011;789;51.612;7.510;2022-12-07T11:26:04;7.40;;;4.00;;
1591;SDS011;789;51.612;7.510;2022-12-07T11:28:43;10.30;;;4.53;;
1591;SDS011;789;51.612;7.510;2022-12-07T11:31:26;8.97;;;4.70;;
1591;SDS011;789;51.612;7.510;2022-12-07T11:34:00;12.83;;;5.07;;
1591;SDS011;789;51.612;7.510;2022-12-07T11:36:33;5.73;;;4.03;;
1591;SDS011;789;51.612;7.510;2022-12-07T11:39:04;8.63;;;4.20;;
1591;SDS011;789;51.612;7.510;2022-12-07T11:41:42;10.70;;;5.10;;
1591;SDS011;789;51.612;7.510;2022-12-07T11:44:15;6.03;;;4.10;;
1591;SDS011;789;51.612;7.510;2022-12-07T11:46:51;6.10;;;3.93;;
1591;SDS011;789;51.612;7.510;2022-12-07T11:49:26;15.17;;;6.43;;
1591;SDS011;789;51.612;7.510;2022-12-07T11:52:04;13.07;;;6.45;;
1591;SDS011;789;51.612;7.510;2022-12-07T11:54:36;10.40;;;4.70;;
1591;SDS011;789;51.612;7.510;2022-12-07T11:57:12;9.43;;;4.50;;
1591;SDS011;789;51.612;7.510;2022-12-07T11:59:45;15.43;;;5.70;;
1591;SDS011;789;51.612;7.510;2022-12-07T12:02:16;7.37;;;4.53;;
1591;SDS011;789;51.612;7.510;2022-12-07T12:04:50;12.37;;;3.90;;
1591;SDS011;789;51.612;7.510;2022-12-07T12:07:21;8.43;;;4.43;;
1591;SDS011;789;51.612;7.510;2022-12-07T12:09:51;6.70;;;3.47;;
1591;SDS011;789;51.612;7.510;2022-12-07T12:12:36;7.53;;;3.90;;
1591;SDS011;789;51.612;7.510;2022-12-07T12:15:20;11.43;;;3.80;;
1591;SDS011;789;51.612;7.510;2022-12-07T12:18:05;8.50;;;4.10;;
1591;SDS011;789;51.612;7.510;2022-12-07T12:20:48;14.73;;;3.73;;
1591;SDS011;789;51.612;7.510;2022-12-07T12:23:19;8.20;;;4.70;;
1591;SDS011;789;51.612;7.510;2022-12-07T12:25:49;11.20;;;3.80;;
1591;SDS011;789;51.612;7.510;2022-12-07T12:28:20;7.25;;;4.05;;
1591;SDS011;789;51.612;7.510;2022-12-07T12:31:07;9.53;;;4.40;;
1591;SDS011;789;51.612;7.510;2022-12-07T12:33:38;9.93;;;4.30;;
1591;SDS011;789;51.612;7.510;2022-12-07T12:36:19;6.37;;;3.80;;
1591;SDS011;789;51.612;7.510;2022-12-07T12:38:49;11.30;;;4.28;;
1591;SDS011;789;51.612;7.510;2022-12-07T12:47:41;6.07;;;3.60;;
1591;SDS011;789;51.612;7.510;2022-12-07T12:50:24;10.52;;;3.20;;
1591;SDS011;789;51.612;7.510;2022-12-07T12:52:55;12.40;;;3.93;;
1591;SDS011;789;51.612;7.510;2022-12-07T12:58:50;12.60;;;4.47;;
1591;SDS011;789;51.612;7.510;2022-12-07T13:01:50;8.83;;;3.70;;
1591;SDS011;789;51.612;7.510;2022-12-07T13:04:25;11.83;;;4.10;;
1591;SDS011;789;51.612;7.510;2022-12-07T13:06:56;7.77;;;3.80;;
1591;SDS011;789;51.612;7.510;2022-12-07T13:09:24;7.43;;;4.03;;
1591;SDS011;789;51.612;7.510;2022-12-07T13:12:03;10.60;;;4.57;;
1591;SDS011;789;51.612;7.510;2022-12-07T13:14:54;8.20;;;4.03;;
1591;SDS011;789;51.612;7.510;2022-12-07T13:23:19;7.85;;;3.60;;
1591;SDS011;789;51.612;7.510;2022-12-07T13:25:51;7.77;;;3.77;;
1591;SDS011;789;51.612;7.510;2022-12-07T13:28:22;8.87;;;3.47;;
1591;SDS011;789;51.612;7.510;2022-12-07T13:33:57;8.70;;;3.97;;
1591;SDS011;789;51.612;7.510;2022-12-07T13:36:26;8.87;;;3.70;;
1591;SDS011;789;51.612;7.510;2022-12-07T13:38:54;21.80;;;4.13;;
1591;SDS011;789;51.612;7.510;2022-12-07T13:41:23;14.97;;;4.20;;
1591;SDS011;789;51.612;7.510;2022-12-07T13:43:53;10.60;;;3.43;;
1591;SDS011;789;51.612;7.510;2022-12-07T13:46:28;3.87;;;2.90;;
1591;SDS011;789;51.612;7.510;2022-12-07T13:49:01;10.70;;;2.97;;
1591;SDS011;789;51.612;7.510;2022-12-07T13:51:33;8.13;;;3.22;;
1591;SDS011;789;51.612;7.510;2022-12-07T13:54:09;12.50;;;3.00;;
1591;SDS011;789;51.612;7.510;2022-12-07T13:56:37;8.32;;;2.92;;
1591;SDS011;789;51.612;7.510;2022-12-07T13:59:05;7.10;;;3.07;;
1591;SDS011;789;51.612;7.510;2022-12-07T14:01:38;10.50;;;3.47;;
1591;SDS011;789;51.612;7.510;2022-12-07T14:04:18;5.93;;;3.25;;
1591;SDS011;789;51.612;7.510;2022-12-07T14:06:55;10.25;;;3.47;;
1591;SDS011;789;51.612;7.510;2022-12-07T14:09:22;7.07;;;3.03;;
1591;SDS011;789;51.612;7.510;2022-12-07T14:11:52;8.15;;;3.40;;
1591;SDS011;789;51.612;7.510;2022-12-07T14:14:21;14.07;;;3.00;;
1591;SDS011;789;51.612;7.510;2022-12-07T14:16:59;7.17;;;3.10;;
1591;SDS011;789;51.612;7.510;2022-12-07T14:19:46;13.68;;;3.15;;
1591;SDS011;789;51.612;7.510;2022-12-07T14:25:16;9.32;;;2.70;;
1591;SDS011;789;51.612;7.510;2022-12-07T14:27:49;5.15;;;2.10;;
1591;SDS011;789;51.612;7.510;2022-12-07T14:30:25;7.47;;;2.83;;
1591;SDS011;789;51.612;7.510;2022-12-07T14:32:54;5.43;;;2.95;;
1591;SDS011;789;51.612;7.510;2022-12-07T14:35:25;9.70;;;3.83;;
1591;SDS011;789;51.612;7.510;2022-12-07T14:37:54;7.40;;;2.92;;
1591;SDS011;789;51.612;7.510;2022-12-07T14:40:22;6.60;;;2.80;;
1591;SDS011;789;51.612;7.510;2022-12-07T14:42:52;5.18;;;3.00;;
1591;SDS011;789;51.612;7.510;2022-12-07T14:45:22;6.63;;;3.15;;
1591;SDS011;789;51.612;7.510;2022-12-07T14:47:49;8.85;;;2.90;;
1591;SDS011;789;51.612;7.510;2022-12-07T14:50:17;8.30;;;3.53;;
1591;SDS011;789;51.612;7.510;2022-12-07T14:52:48;7.60;;;3.08;;
1591;SDS011;789;51.612;7.510;2022-12-07T14:55:22;6.88;;;3.00;;
1591;SDS011;789;51.612;7.510;2022-12-07T14:57:51;9.43;;;3.15;;
1591;SDS011;789;51.612;7.510;2022-12-07T15:00:19;6.07;;;3.33;;
1591;SDS011;789;51.612;7.510;2022-12-07T15:02:47;7.55;;;4.18;;
1591;SDS011;789;51.612;7.510;2022-12-07T15:05:15;10.30;;;4.50;;
1591;SDS011;789;51.612;7.510;2022-12-07T15:07:42;12.13;;;4.95;;
1591;SDS011;789;51.612;7.510;2022-12-07T15:10:13;7.90;;;4.25;;
1591;SDS011;789;51.612;7.510;2022-12-07T15:12:44;12.80;;;5.00;;
1591;SDS011;789;51.612;7.510;2022-12-07T15:15:10;8.82;;;4.97;;
1591;SDS011;789;51.612;7.510;2022-12-07T15:17:37;6.90;;;4.90;;
1591;SDS011;789;51.612;7.510;2022-12-07T15:20:05;9.50;;;4.70;;
1591;SDS011;789;51.612;7.510;2022-12-07T15:22:34;7.55;;;4.90;;
1591;SDS011;789;51.612;7.510;2022-12-07T15:25:00;8.38;;;5.22;;
1591;SDS011;789;51.612;7.510;2022-12-07T15:27:29;11.15;;;5.28;;
1591;SDS011;789;51.612;7.510;2022-12-07T15:29:57;9.32;;;5.30;;
1591;SDS011;789;51.612;7.510;2022-12-07T15:32:24;11.40;;;5.55;;
1591;SDS011;789;51.612;7.510;2022-12-07T15:34:50;11.55;;;5.57;;
1591;SDS011;789;51.612;7.510;2022-12-07T15:37:17;11.98;;;5.05;;
1591;SDS011;789;51.612;7.510;2022-12-07T15:39:44;11.80;;;5.40;;
1591;SDS011;789;51.612;7.510;2022-12-07T15:42:11;7.40;;;5.43;;
1591;SDS011;789;51.612;7.510;2022-12-07T15:44:37;9.95;;;4.90;;
1591;SDS011;789;51.612;7.510;2022-12-07T15:47:23;10.02;;;5.07;;
1591;SDS011;789;51.612;7.510;2022-12-07T15:49:50;8.15;;;5.25;;
1591;SDS011;789;51.612;7.510;2022-12-07T15:52:16;11.52;;;5.75;;
1591;SDS011;789;51.612;7.510;2022-12-07T15:54:46;10.02;;;5.90;;
1591;SDS011;789;51.612;7.510;2022-12-07T15:57:13;6.82;;;5.40;;
1591;SDS011;789;51.612;7.510;2022-12-07T15:59:40;11.10;;;5.87;;
1591;SDS011;789;51.612;7.510;2022-12-07T16:02:09;9.70;;;5.32;;